sensor_id;sensor_type;location;lat;lon;timestamp;pressure;altitude;pressure_sealevel;temperature;humidity
74372;BME280;62885;51.374;6.170;2023-03-13T00:01:41;100092.34;;;10.49;82.53
74372;BME280;62885;51.374;6.170;2023-03-13T00:04:06;100090.28;;;10.52;82.77
74372;BME280;62885;51.374;6.170;2023-03-13T00:06:34;100081.97;;;10.55;82.68
74372;BME280;62885;51.374;6.170;2023-03-13T00:09:01;100085.38;;;10.57;82.25
74372;BME280;62885;51.374;6.170;2023-03-13T00:11:27;100086.09;;;10.59;82.30
74372;BME280;62885;51.374;6.170;2023-03-13T00:14:00;100073.38;;;10.52;83.37
74372;BME280;62885;51.374;6.170;2023-03-13T00:16:27;100069.00;;;10.51;83.97
74372;BME280;62885;51.374;6.170;2023-03-13T00:18:54;100067.28;;;10.50;83.57
74372;BME280;62885;51.374;6.170;2023-03-13T00:21:21;100064.38;;;10.53;83.92
74372;BME280;62885;51.374;6.170;2023-03-13T00:23:47;100058.84;;;10.54;84.52
74372;BME280;62885;51.374;6.170;2023-03-13T00:26:15;100052.28;;;10.58;84.78
74372;BME280;62885;51.374;6.170;2023-03-13T00:28:42;100052.94;;;10.51;85.28
74372;BME280;62885;51.374;6.170;2023-03-13T00:33:34;100039.09;;;10.46;86.26
74372;BME280;62885;51.374;6.170;2023-03-13T00:38:30;100022.31;;;10.44;87.08
74372;BME280;62885;51.374;6.170;2023-03-13T00:41:04;100025.28;;;10.41;87.90
74372;BME280;62885;51.374;6.170;2023-03-13T00:43:30;100012.31;;;10.36;88.24
74372;BME280;62885;51.374;6.170;2023-03-13T00:45:56;100001.41;;;10.28;89.90
74372;BME280;62885;51.374;6.170;2023-03-13T00:48:22;99998.97;;;10.25;90.82
74372;BME280;62885;51.374;6.170;2023-03-13T00:50:48;99987.56;;;10.23;91.12
74372;BME280;62885;51.374;6.170;2023-03-13T00:53:13;99991.22;;;10.22;91.90
74372;BME280;62885;51.374;6.170;2023-03-13T00:58:21;99980.25;;;10.25;91.35
74372;BME280;62885;51.374;6.170;2023-03-13T01:00:47;99981.69;;;10.29;91.46
74372;BME280;62885;51.374;6.170;2023-03-13T01:03:12;99986.09;;;10.40;90.87
74372;BME280;62885;51.374;6.170;2023-03-13T01:05:38;99978.22;;;10.38;91.66
74372;BME280;62885;51.374;6.170;2023-03-13T01:08:03;99974.25;;;10.33;92.61
74372;BME280;62885;51.374;6.170;2023-03-13T01:10:29;99971.84;;;10.29;93.19
74372;BME280;62885;51.374;6.170;2023-03-13T01:12:54;99960.94;;;10.21;94.65
74372;BME280;62885;51.374;6.170;2023-03-13T01:15:19;99956.72;;;10.19;95.58
74372;BME280;62885;51.374;6.170;2023-03-13T01:17:45;99956.72;;;10.19;96.25
74372;BME280;62885;51.374;6.170;2023-03-13T01:20:11;99946.25;;;10.16;96.79
74372;BME280;62885;51.374;6.170;2023-03-13T01:22:36;99943.34;;;10.19;97.03
74372;BME280;62885;51.374;6.170;2023-03-13T01:25:02;99947.34;;;10.13;97.53
74372;BME280;62885;51.374;6.170;2023-03-13T01:27:28;99935.09;;;10.11;98.41
74372;BME280;62885;51.374;6.170;2023-03-13T01:29:54;99931.28;;;10.13;98.63
74372;BME280;62885;51.374;6.170;2023-03-13T01:32:19;99919.91;;;10.11;99.46
74372;BME280;62885;51.374;6.170;2023-03-13T01:34:44;99918.94;;;10.12;99.57
74372;BME280;62885;51.374;6.170;2023-03-13T01:37:10;99908.47;;;10.09;100.00
74372;BME280;62885;51.374;6.170;2023-03-13T01:39:35;99909.91;;;10.13;100.00
74372;BME280;62885;51.374;6.170;2023-03-13T01:42:04;99901.53;;;10.18;100.00
74372;BME280;62885;51.374;6.170;2023-03-13T01:44:49;99890.06;;;10.16;100.00
74372;BME280;62885;51.374;6.170;2023-03-13T01:47:14;99887.09;;;10.09;100.00
74372;BME280;62885;51.374;6.170;2023-03-13T01:49:40;99890.97;;;10.16;100.00
74372;BME280;62885;51.374;6.170;2023-03-13T01:52:14;99878.31;;;10.18;100.00
74372;BME280;62885;51.374;6.170;2023-03-13T01:59:44;99856.38;;;10.24;100.00
74372;BME280;62885;51.374;6.170;2023-03-13T02:02:12;99848.06;;;10.37;100.00
74372;BME280;62885;51.374;6.170;2023-03-13T02:04:42;99844.59;;;10.37;100.00
74372;BME280;62885;51.374;6.170;2023-03-13T02:07:19;99843.13;;;10.33;100.00
74372;BME280;62885;51.374;6.170;2023-03-13T02:09:48;99834.97;;;10.34;100.00
74372;BME280;62885;51.374;6.170;2023-03-13T02:12:36;99827.69;;;10.36;100.00
74372;BME280;62885;51.374;6.170;2023-03-13T02:15:14;99818.38;;;10.40;100.00
74372;BME280;62885;51.374;6.170;2023-03-13T02:17:40;99821.31;;;10.37;100.00
74372;BME280;62885;51.374;6.170;2023-03-13T02:20:07;99818.09;;;10.43;100.00
74372;BME280;62885;51.374;6.170;2023-03-13T02:27:46;99813.88;;;10.41;100.00
74372;BME280;62885;51.374;6.170;2023-03-13T02:30:12;99804.88;;;10.51;100.00
74372;BME280;62885;51.374;6.170;2023-03-13T02:32:39;99803.06;;;10.52;100.00
74372;BME280;62885;51.374;6.170;2023-03-13T02:35:07;99787.41;;;10.47;100.00
74372;BME280;62885;51.374;6.170;2023-03-13T02:37:34;99784.50;;;10.60;100.00
74372;BME280;62885;51.374;6.170;2023-03-13T02:40:02;99779.25;;;10.68;100.00
74372;BME280;62885;51.374;6.170;2023-03-13T02:42:30;99765.16;;;10.66;100.00
74372;BME280;62885;51.374;6.170;2023-03-13T02:44:55;99754.44;;;10.66;100.00
74372;BME280;62885;51.374;6.170;2023-03-13T02:47:22;99751.50;;;10.69;100.00
74372;BME280;62885;51.374;6.170;2023-03-13T02:49:48;99728.28;;;10.69;100.00
74372;BME280;62885;51.374;6.170;2023-03-13T02:52:32;99724.44;;;10.72;100.00
74372;BME280;62885;51.374;6.170;2023-03-13T02:55:05;99729.66;;;10.74;100.00
74372;BME280;62885;51.374;6.170;2023-03-13T02:57:33;99732.91;;;10.67;100.00
74372;BME280;62885;51.374;6.170;2023-03-13T03:00:00;99731.66;;;10.72;100.00
74372;BME280;62885;51.374;6.170;2023-03-13T03:02:25;99725.88;;;10.76;100.00
74372;BME280;62885;51.374;6.170;2023-03-13T03:04:51;99736.59;;;10.76;100.00
74372;BME280;62885;51.374;6.170;2023-03-13T03:07:16;99725.03;;;10.76;100.00
74372;BME280;62885;51.374;6.170;2023-03-13T03:09:41;99711.22;;;10.80;100.00
74372;BME280;62885;51.374;6.170;2023-03-13T03:12:07;99724.03;;;10.86;100.00
74372;BME280;62885;51.374;6.170;2023-03-13T03:14:32;99720.63;;;10.84;100.00
74372;BME280;62885;51.374;6.170;2023-03-13T03:16:58;99722.47;;;10.84;100.00
74372;BME280;62885;51.374;6.170;2023-03-13T03:19:23;99716.53;;;10.90;100.00
74372;BME280;62885;51.374;6.170;2023-03-13T03:21:49;99728.81;;;10.92;100.00
74372;BME280;62885;51.374;6.170;2023-03-13T03:24:15;99718.38;;;10.89;100.00
74372;BME280;62885;51.374;6.170;2023-03-13T03:26:40;99718.53;;;10.88;100.00
74372;BME280;62885;51.374;6.170;2023-03-13T03:29:05;99730.09;;;10.88;100.00
74372;BME280;62885;51.374;6.170;2023-03-13T03:31:32;99735.44;;;10.88;100.00
74372;BME280;62885;51.374;6.170;2023-03-13T03:33:58;99730.22;;;10.87;100.00
74372;BME280;62885;51.374;6.170;2023-03-13T03:36:23;99735.44;;;10.88;100.00
74372;BME280;62885;51.374;6.170;2023-03-13T03:38:49;99737.41;;;10.86;100.00
74372;BME280;62885;51.374;6.170;2023-03-13T03:41:15;99733.63;;;10.89;100.00
74372;BME280;62885;51.374;6.170;2023-03-13T03:43:41;99734.16;;;10.92;100.00
74372;BME280;62885;51.374;6.170;2023-03-13T03:46:07;99716.81;;;10.96;100.00
74372;BME280;62885;51.374;6.170;2023-03-13T03:48:33;99723.44;;;11.02;100.00
74372;BME280;62885;51.374;6.170;2023-03-13T03:50:58;99718.78;;;11.04;100.00
74372;BME280;62885;51.374;6.170;2023-03-13T03:53:24;99714.41;;;11.03;100.00
74372;BME280;62885;51.374;6.170;2023-03-13T03:55:49;99719.78;;;11.03;100.00
74372;BME280;62885;51.374;6.170;2023-03-13T03:58:15;99708.63;;;11.07;100.00
74372;BME280;62885;51.374;6.170;2023-03-13T04:00:47;99703.25;;;11.07;100.00
74372;BME280;62885;51.374;6.170;2023-03-13T04:03:16;99709.19;;;11.11;100.00
74372;BME280;62885;51.374;6.170;2023-03-13T04:05:42;99707.91;;;11.15;100.00
74372;BME280;62885;51.374;6.170;2023-03-13T04:08:08;99706.91;;;11.16;100.00
74372;BME280;62885;51.374;6.170;2023-03-13T04:10:34;99706.91;;;11.16;100.00
74372;BME280;62885;51.374;6.170;2023-03-13T04:12:59;99699.88;;;11.15;100.00
74372;BME280;62885;51.374;6.170;2023-03-13T04:15:25;99702.28;;;11.18;100.00
74372;BME280;62885;51.374;6.170;2023-03-13T04:17:50;99683.22;;;11.21;100.00
74372;BME280;62885;51.374;6.170;2023-03-13T04:20:16;99700.13;;;11.22;100.00
74372;BME280;62885;51.374;6.170;2023-03-13T04:22:42;99685.59;;;11.24;100.00
74372;BME280;62885;51.374;6.170;2023-03-13T04:25:08;99685.19;;;11.29;100.00
74372;BME280;62885;51.374;6.170;2023-03-13T04:27:34;99685.84;;;11.31;100.00
74372;BME280;62885;51.374;6.170;2023-03-13T04:29:59;99684.88;;;11.32;100.00
74372;BME280;62885;51.374;6.170;2023-03-13T04:32:25;99679.06;;;11.36;100.00
74372;BME280;62885;51.374;6.170;2023-03-13T04:34:50;99680.31;;;11.42;100.00
74372;BME280;62885;51.374;6.170;2023-03-13T04:37:16;99681.47;;;11.39;100.00
74372;BME280;62885;51.374;6.170;2023-03-13T04:39:42;99684.16;;;11.39;100.00
74372;BME280;62885;51.374;6.170;2023-03-13T04:42:09;99681.47;;;11.39;100.00
74372;BME280;62885;51.374;6.170;2023-03-13T04:44:35;99665.25;;;11.41;100.00
74372;BME280;62885;51.374;6.170;2023-03-13T04:47:00;99666.75;;;11.43;100.00
74372;BME280;62885;51.374;6.170;2023-03-13T04:49:25;99663.22;;;11.52;100.00
74372;BME280;62885;51.374;6.170;2023-03-13T04:51:51;99665.31;;;11.59;100.00
74372;BME280;62885;51.374;6.170;2023-03-13T04:54:16;99652.88;;;11.58;100.00
74372;BME280;62885;51.374;6.170;2023-03-13T04:56:42;99646.38;;;11.60;100.00
74372;BME280;62885;51.374;6.170;2023-03-13T04:59:08;99631.44;;;11.58;100.00
74372;BME280;62885;51.374;6.170;2023-03-13T05:01:33;99633.22;;;11.67;100.00
74372;BME280;62885;51.374;6.170;2023-03-13T05:03:59;99639.13;;;11.70;100.00
74372;BME280;62885;51.374;6.170;2023-03-13T05:06:24;99622.88;;;11.72;100.00
74372;BME280;62885;51.374;6.170;2023-03-13T05:08:50;99627.56;;;11.70;100.00
74372;BME280;62885;51.374;6.170;2023-03-13T05:11:15;99631.91;;;11.71;100.00
74372;BME280;62885;51.374;6.170;2023-03-13T05:13:41;99621.03;;;11.72;100.00
74372;BME280;62885;51.374;6.170;2023-03-13T05:16:06;99630.53;;;11.76;100.00
74372;BME280;62885;51.374;6.170;2023-03-13T05:18:32;99628.00;;;11.75;100.00
74372;BME280;62885;51.374;6.170;2023-03-13T05:20:57;99636.88;;;11.75;100.00
74372;BME280;62885;51.374;6.170;2023-03-13T05:23:23;99640.09;;;11.79;100.00
74372;BME280;62885;51.374;6.170;2023-03-13T05:25:48;99636.28;;;11.81;100.00
74372;BME280;62885;51.374;6.170;2023-03-13T05:28:14;99642.31;;;11.83;100.00
74372;BME280;62885;51.374;6.170;2023-03-13T05:30:39;99637.50;;;11.87;100.00
74372;BME280;62885;51.374;6.170;2023-03-13T05:33:04;99617.03;;;11.86;100.00
74372;BME280;62885;51.374;6.170;2023-03-13T05:35:30;99622.56;;;11.84;100.00
74372;BME280;62885;51.374;6.170;2023-03-13T05:37:55;99623.94;;;11.88;99.78
74372;BME280;62885;51.374;6.170;2023-03-13T05:40:20;99619.25;;;11.90;99.98
74372;BME280;62885;51.374;6.170;2023-03-13T05:42:46;99633.19;;;11.94;99.85
74372;BME280;62885;51.374;6.170;2023-03-13T05:45:13;99618.06;;;12.03;99.67
74372;BME280;62885;51.374;6.170;2023-03-13T05:47:39;99618.91;;;12.03;99.06
74372;BME280;62885;51.374;6.170;2023-03-13T05:50:05;99622.94;;;12.07;98.92
74372;BME280;62885;51.374;6.170;2023-03-13T05:52:31;99614.75;;;12.09;98.91
74372;BME280;62885;51.374;6.170;2023-03-13T05:54:57;99616.97;;;12.13;98.14
74372;BME280;62885;51.374;6.170;2023-03-13T05:57:22;99611.31;;;12.16;97.73
74372;BME280;62885;51.374;6.170;2023-03-13T05:59:48;99606.56;;;12.10;98.19
74372;BME280;62885;51.374;6.170;2023-03-13T06:02:13;99604.56;;;12.12;97.54
74372;BME280;62885;51.374;6.170;2023-03-13T06:04:38;99606.47;;;12.20;97.83
74372;BME280;62885;51.374;6.170;2023-03-13T06:07:04;99601.97;;;12.20;97.69
74372;BME280;62885;51.374;6.170;2023-03-13T06:09:29;99601.13;;;12.20;97.84
74372;BME280;62885;51.374;6.170;2023-03-13T06:11:55;99593.75;;;12.22;97.60
74372;BME280;62885;51.374;6.170;2023-03-13T06:14:20;99597.66;;;12.27;96.79
74372;BME280;62885;51.374;6.170;2023-03-13T06:16:45;99605.53;;;12.29;96.27
74372;BME280;62885;51.374;6.170;2023-03-13T06:19:11;99608.63;;;12.34;95.42
74372;BME280;62885;51.374;6.170;2023-03-13T06:21:37;99608.06;;;12.30;95.73
74372;BME280;62885;51.374;6.170;2023-03-13T06:24:03;99610.47;;;12.33;96.05
74372;BME280;62885;51.374;6.170;2023-03-13T06:26:28;99616.50;;;12.35;95.09
74372;BME280;62885;51.374;6.170;2023-03-13T06:28:53;99624.41;;;12.37;95.33
74372;BME280;62885;51.374;6.170;2023-03-13T06:31:19;99604.16;;;12.43;94.10
74372;BME280;62885;51.374;6.170;2023-03-13T06:33:44;99615.75;;;12.43;93.79
74372;BME280;62885;51.374;6.170;2023-03-13T06:36:10;99624.88;;;12.50;93.46
74372;BME280;62885;51.374;6.170;2023-03-13T06:38:35;99610.97;;;12.55;92.92
74372;BME280;62885;51.374;6.170;2023-03-13T06:41:00;99626.09;;;12.56;92.10
74372;BME280;62885;51.374;6.170;2023-03-13T06:43:26;99617.69;;;12.59;92.07
74372;BME280;62885;51.374;6.170;2023-03-13T06:45:52;99610.19;;;12.62;91.93
74372;BME280;62885;51.374;6.170;2023-03-13T06:48:17;99616.78;;;12.68;91.28
74372;BME280;62885;51.374;6.170;2023-03-13T06:50:42;99617.44;;;12.70;90.84
74372;BME280;62885;51.374;6.170;2023-03-13T06:53:18;99602.19;;;12.70;90.79
74372;BME280;62885;51.374;6.170;2023-03-13T06:55:45;99604.41;;;12.75;90.53
74372;BME280;62885;51.374;6.170;2023-03-13T06:58:11;99593.84;;;12.82;89.18
74372;BME280;62885;51.374;6.170;2023-03-13T07:00:36;99595.63;;;12.91;89.16
74372;BME280;62885;51.374;6.170;2023-03-13T07:03:04;99593.06;;;12.89;88.83
74372;BME280;62885;51.374;6.170;2023-03-13T07:05:29;99582.88;;;12.93;88.61
74372;BME280;62885;51.374;6.170;2023-03-13T07:07:54;99581.41;;;12.98;88.01
74372;BME280;62885;51.374;6.170;2023-03-13T07:10:20;99589.75;;;12.95;88.50
74372;BME280;62885;51.374;6.170;2023-03-13T07:12:45;99584.22;;;12.97;87.92
74372;BME280;62885;51.374;6.170;2023-03-13T07:15:10;99585.59;;;13.01;87.71
74372;BME280;62885;51.374;6.170;2023-03-13T07:17:36;99572.00;;;13.02;87.54
74372;BME280;62885;51.374;6.170;2023-03-13T07:20:03;99586.44;;;13.01;87.12
74372;BME280;62885;51.374;6.170;2023-03-13T07:22:29;99585.75;;;12.99;87.05
74372;BME280;62885;51.374;6.170;2023-03-13T07:24:55;99576.69;;;13.00;86.89
74372;BME280;62885;51.374;6.170;2023-03-13T07:27:20;99582.91;;;13.01;87.18
74372;BME280;62885;51.374;6.170;2023-03-13T07:29:46;99584.59;;;13.02;86.71
74372;BME280;62885;51.374;6.170;2023-03-13T07:32:12;99576.31;;;12.95;87.38
74372;BME280;62885;51.374;6.170;2023-03-13T07:34:37;99589.59;;;12.97;87.21
74372;BME280;62885;51.374;6.170;2023-03-13T07:37:02;99599.16;;;12.99;87.11
74372;BME280;62885;51.374;6.170;2023-03-13T07:39:28;99599.03;;;13.01;86.33
74372;BME280;62885;51.374;6.170;2023-03-13T07:41:53;99586.59;;;13.00;86.61
74372;BME280;62885;51.374;6.170;2023-03-13T07:44:18;99584.75;;;13.00;86.57
74372;BME280;62885;51.374;6.170;2023-03-13T07:46:44;99586.28;;;13.03;85.97
74372;BME280;62885;51.374;6.170;2023-03-13T07:49:12;99582.75;;;13.02;86.05
74372;BME280;62885;51.374;6.170;2023-03-13T07:51:38;99580.06;;;13.02;85.79
74372;BME280;62885;51.374;6.170;2023-03-13T07:54:03;99575.38;;;13.04;85.78
74372;BME280;62885;51.374;6.170;2023-03-13T07:56:28;99578.81;;;13.14;85.07
74372;BME280;62885;51.374;6.170;2023-03-13T07:58:54;99573.94;;;13.18;85.29
74372;BME280;62885;51.374;6.170;2023-03-13T08:01:21;99580.03;;;13.28;84.25
74372;BME280;62885;51.374;6.170;2023-03-13T08:03:48;99570.97;;;13.29;84.93
74372;BME280;62885;51.374;6.170;2023-03-13T08:06:16;99577.41;;;13.36;83.74
74372;BME280;62885;51.374;6.170;2023-03-13T08:08:42;99594.72;;;13.42;83.51
74372;BME280;62885;51.374;6.170;2023-03-13T08:11:12;99590.69;;;13.46;83.62
74372;BME280;62885;51.374;6.170;2023-03-13T08:13:38;99586.81;;;13.40;83.68
74372;BME280;62885;51.374;6.170;2023-03-13T08:16:10;99582.47;;;13.47;83.74
74372;BME280;62885;51.374;6.170;2023-03-13T08:18:36;99579.44;;;13.42;83.53
74372;BME280;62885;51.374;6.170;2023-03-13T08:21:09;99588.19;;;13.44;83.36
74372;BME280;62885;51.374;6.170;2023-03-13T08:23:35;99578.94;;;13.39;84.01
74372;BME280;62885;51.374;6.170;2023-03-13T08:26:15;99575.41;;;13.46;83.20
74372;BME280;62885;51.374;6.170;2023-03-13T08:28:43;99580.97;;;13.45;83.22
74372;BME280;62885;51.374;6.170;2023-03-13T08:33:41;99582.81;;;13.52;83.13
74372;BME280;62885;51.374;6.170;2023-03-13T08:36:18;99570.41;;;13.60;83.27
74372;BME280;62885;51.374;6.170;2023-03-13T08:38:44;99565.22;;;13.66;82.56
74372;BME280;62885;51.374;6.170;2023-03-13T08:41:11;99557.19;;;13.82;81.90
74372;BME280;62885;51.374;6.170;2023-03-13T08:43:37;99547.97;;;13.85;81.94
74372;BME280;62885;51.374;6.170;2023-03-13T08:46:03;99544.91;;;13.88;81.91
74372;BME280;62885;51.374;6.170;2023-03-13T08:48:28;99542.91;;;13.98;81.06
74372;BME280;62885;51.374;6.170;2023-03-13T08:51:11;99536.38;;;14.09;80.89
74372;BME280;62885;51.374;6.170;2023-03-13T08:53:37;99546.63;;;14.05;81.26
74372;BME280;62885;51.374;6.170;2023-03-13T08:56:04;99539.22;;;14.07;81.05
74372;BME280;62885;51.374;6.170;2023-03-13T08:58:30;99543.09;;;14.21;80.75
74372;BME280;62885;51.374;6.170;2023-03-13T09:01:10;99538.72;;;14.28;80.75
74372;BME280;62885;51.374;6.170;2023-03-13T09:03:36;99532.00;;;14.40;80.79
74372;BME280;62885;51.374;6.170;2023-03-13T09:06:01;99530.31;;;14.55;79.90
74372;BME280;62885;51.374;6.170;2023-03-13T09:08:28;99542.59;;;14.66;78.98
74372;BME280;62885;51.374;6.170;2023-03-13T09:11:02;99540.06;;;14.72;79.12
74372;BME280;62885;51.374;6.170;2023-03-13T09:13:29;99529.94;;;14.74;79.14
74372;BME280;62885;51.374;6.170;2023-03-13T09:16:00;99536.00;;;14.76;79.29
74372;BME280;62885;51.374;6.170;2023-03-13T09:18:26;99535.81;;;14.78;79.04
74372;BME280;62885;51.374;6.170;2023-03-13T09:20:52;99542.56;;;14.74;79.41
74372;BME280;62885;51.374;6.170;2023-03-13T09:23:18;99537.53;;;14.63;80.18
74372;BME280;62885;51.374;6.170;2023-03-13T09:25:44;99537.72;;;14.53;81.75
74372;BME280;62885;51.374;6.170;2023-03-13T09:28:09;99531.81;;;14.58;81.91
74372;BME280;62885;51.374;6.170;2023-03-13T09:30:35;99510.59;;;14.71;81.30
74372;BME280;62885;51.374;6.170;2023-03-13T09:33:00;99519.81;;;14.76;81.27
74372;BME280;62885;51.374;6.170;2023-03-13T09:35:26;99503.13;;;14.81;80.93
74372;BME280;62885;51.374;6.170;2023-03-13T09:37:51;99501.59;;;14.87;79.96
74372;BME280;62885;51.374;6.170;2023-03-13T09:40:19;99514.44;;;14.85;79.92
74372;BME280;62885;51.374;6.170;2023-03-13T09:42:47;99501.59;;;14.95;79.98
74372;BME280;62885;51.374;6.170;2023-03-13T09:45:38;99505.13;;;14.95;78.59
74372;BME280;62885;51.374;6.170;2023-03-13T09:48:16;99498.38;;;14.91;78.81
74372;BME280;62885;51.374;6.170;2023-03-13T09:53:57;99493.50;;;14.87;78.47
74372;BME280;62885;51.374;6.170;2023-03-13T09:56:28;99490.50;;;14.90;78.30
74372;BME280;62885;51.374;6.170;2023-03-13T09:58:58;99501.91;;;15.00;77.22
74372;BME280;62885;51.374;6.170;2023-03-13T10:01:30;99492.13;;;14.99;77.22
74372;BME280;62885;51.374;6.170;2023-03-13T10:04:05;99496.47;;;15.08;76.90
74372;BME280;62885;51.374;6.170;2023-03-13T10:06:35;99493.09;;;15.14;77.12
74372;BME280;62885;51.374;6.170;2023-03-13T10:09:09;99485.31;;;15.19;76.95
74372;BME280;62885;51.374;6.170;2023-03-13T10:12:17;99478.00;;;15.28;76.22
74372;BME280;62885;51.374;6.170;2023-03-13T10:14:53;99475.31;;;15.28;76.15
74372;BME280;62885;51.374;6.170;2023-03-13T10:17:37;99459.09;;;15.36;75.96
74372;BME280;62885;51.374;6.170;2023-03-13T10:20:33;99452.63;;;15.45;75.04
74372;BME280;62885;51.374;6.170;2023-03-13T10:23:06;99448.69;;;15.55;73.95
74372;BME280;62885;51.374;6.170;2023-03-13T10:25:37;99466.78;;;15.55;74.00
74372;BME280;62885;51.374;6.170;2023-03-13T10:28:03;99458.97;;;15.60;73.22
74372;BME280;62885;51.374;6.170;2023-03-13T10:30:32;99444.81;;;15.58;73.51
74372;BME280;62885;51.374;6.170;2023-03-13T10:33:26;99451.06;;;15.58;73.82
74372;BME280;62885;51.374;6.170;2023-03-13T10:36:18;99440.09;;;15.60;73.15
74372;BME280;62885;51.374;6.170;2023-03-13T10:38:47;99443.13;;;15.57;73.66
74372;BME280;62885;51.374;6.170;2023-03-13T10:41:26;99451.41;;;15.55;73.83
74372;BME280;62885;51.374;6.170;2023-03-13T10:43:57;99441.09;;;15.59;73.75
74372;BME280;62885;51.374;6.170;2023-03-13T10:46:32;99433.31;;;15.64;73.95
74372;BME280;62885;51.374;6.170;2023-03-13T10:49:03;99428.91;;;15.63;73.39
74372;BME280;62885;51.374;6.170;2023-03-13T10:51:37;99423.91;;;15.60;73.29
74372;BME280;62885;51.374;6.170;2023-03-13T10:54:21;99420.66;;;15.65;73.08
74372;BME280;62885;51.374;6.170;2023-03-13T10:56:46;99429.41;;;15.67;71.84
74372;BME280;62885;51.374;6.170;2023-03-13T10:59:25;99425.50;;;15.69;72.45
74372;BME280;62885;51.374;6.170;2023-03-13T11:01:53;99411.66;;;15.72;72.51
74372;BME280;62885;51.374;6.170;2023-03-13T11:07:19;99411.56;;;15.80;71.73
74372;BME280;62885;51.374;6.170;2023-03-13T11:09:56;99415.97;;;15.81;71.82
74372;BME280;62885;51.374;6.170;2023-03-13T11:12:21;99418.00;;;15.79;72.21
74372;BME280;62885;51.374;6.170;2023-03-13T11:14:47;99403.19;;;15.75;71.65
74372;BME280;62885;51.374;6.170;2023-03-13T11:25:19;99380.31;;;15.86;71.04
74372;BME280;62885;51.374;6.170;2023-03-13T11:28:04;99383.84;;;15.86;70.14
74372;BME280;62885;51.374;6.170;2023-03-13T11:30:58;99392.03;;;15.78;70.38
74372;BME280;62885;51.374;6.170;2023-03-13T11:36:12;99390.47;;;15.84;68.92
74372;BME280;62885;51.374;6.170;2023-03-13T11:38:41;99385.72;;;15.86;68.81
74372;BME280;62885;51.374;6.170;2023-03-13T11:52:05;99343.47;;;16.08;66.85
74372;BME280;62885;51.374;6.170;2023-03-13T11:57:43;99347.50;;;16.12;66.79
74372;BME280;62885;51.374;6.170;2023-03-13T12:00:28;99335.75;;;16.19;66.48
74372;BME280;62885;51.374;6.170;2023-03-13T12:05:24;99324.69;;;16.14;65.30
74372;BME280;62885;51.374;6.170;2023-03-13T12:07:56;99326.34;;;16.15;65.24
74372;BME280;62885;51.374;6.170;2023-03-13T12:10:46;99342.75;;;16.14;64.34
74372;BME280;62885;51.374;6.170;2023-03-13T12:13:20;99326.84;;;16.19;63.42
74372;BME280;62885;51.374;6.170;2023-03-13T12:15:57;99316.31;;;16.24;62.77
74372;BME280;62885;51.374;6.170;2023-03-13T12:18:34;99308.41;;;16.22;62.36
74372;BME280;62885;51.374;6.170;2023-03-13T12:21:04;99290.50;;;16.21;61.85
74372;BME280;62885;51.374;6.170;2023-03-13T12:26:11;99325.44;;;16.23;61.87
74372;BME280;62885;51.374;6.170;2023-03-13T12:29:00;99293.47;;;16.26;61.48
74372;BME280;62885;51.374;6.170;2023-03-13T12:31:40;99300.28;;;16.22;62.55
74372;BME280;62885;51.374;6.170;2023-03-13T12:34:29;99285.75;;;16.23;63.33
74372;BME280;62885;51.374;6.170;2023-03-13T12:39:42;99270.50;;;16.30;62.13
74372;BME280;62885;51.374;6.170;2023-03-13T12:44:39;99263.94;;;16.39;61.37
74372;BME280;62885;51.374;6.170;2023-03-13T12:47:27;99265.63;;;16.40;60.47
74372;BME280;62885;51.374;6.170;2023-03-13T12:57:49;99246.44;;;16.35;62.10
74372;BME280;62885;51.374;6.170;2023-03-13T13:00:23;99243.75;;;16.35;62.68
74372;BME280;62885;51.374;6.170;2023-03-13T13:06:10;99228.22;;;16.59;61.48
74372;BME280;62885;51.374;6.170;2023-03-13T13:08:41;99222.81;;;16.59;61.87
74372;BME280;62885;51.374;6.170;2023-03-13T13:29:57;99234.66;;;16.58;60.41
74372;BME280;62885;51.374;6.170;2023-03-13T13:32:40;99225.81;;;16.64;60.37
74372;BME280;62885;51.374;6.170;2023-03-13T13:37:39;99206.91;;;16.64;59.73
74372;BME280;62885;51.374;6.170;2023-03-13T13:42:52;99215.66;;;16.51;59.70
74372;BME280;62885;51.374;6.170;2023-03-13T13:45:22;99204.97;;;16.43;60.75
74372;BME280;62885;51.374;6.170;2023-03-13T13:56:47;99196.66;;;16.59;59.47
74372;BME280;62885;51.374;6.170;2023-03-13T14:01:48;99184.00;;;16.60;60.02
74372;BME280;62885;51.374;6.170;2023-03-13T14:04:30;99194.22;;;16.50;60.59
74372;BME280;62885;51.374;6.170;2023-03-13T14:07:00;99180.28;;;16.46;60.33
74372;BME280;62885;51.374;6.170;2023-03-13T14:09:39;99174.34;;;16.36;60.13
74372;BME280;62885;51.374;6.170;2023-03-13T14:12:29;99187.03;;;16.35;60.75
74372;BME280;62885;51.374;6.170;2023-03-13T14:15:20;99178.09;;;16.35;60.79
74372;BME280;62885;51.374;6.170;2023-03-13T14:17:50;99160.38;;;16.32;62.18
74372;BME280;62885;51.374;6.170;2023-03-13T14:20:35;99169.25;;;16.26;62.57
74372;BME280;62885;51.374;6.170;2023-03-13T14:23:05;99157.69;;;16.32;62.88
74372;BME280;62885;51.374;6.170;2023-03-13T14:25:44;99156.28;;;16.36;62.58
74372;BME280;62885;51.374;6.170;2023-03-13T14:28:24;99162.38;;;16.45;63.05
74372;BME280;62885;51.374;6.170;2023-03-13T14:30:52;99154.28;;;16.45;63.49
74372;BME280;62885;51.374;6.170;2023-03-13T14:33:18;99159.25;;;16.41;63.52
74372;BME280;62885;51.374;6.170;2023-03-13T14:35:44;99165.03;;;16.38;62.65
74372;BME280;62885;51.374;6.170;2023-03-13T14:38:21;99167.78;;;16.45;62.21
74372;BME280;62885;51.374;6.170;2023-03-13T14:40:48;99158.16;;;16.57;61.56
74372;BME280;62885;51.374;6.170;2023-03-13T14:45:49;99155.44;;;16.57;60.51
74372;BME280;62885;51.374;6.170;2023-03-13T14:48:21;99146.19;;;16.45;60.27
74372;BME280;62885;51.374;6.170;2023-03-13T14:50:50;99156.72;;;16.40;60.67
74372;BME280;62885;51.374;6.170;2023-03-13T14:53:19;99144.25;;;16.39;60.42
74372;BME280;62885;51.374;6.170;2023-03-13T14:55:45;99149.22;;;16.35;60.41
74372;BME280;62885;51.374;6.170;2023-03-13T15:00:49;99133.94;;;16.28;59.61